MSC Flavia — 3FBD7 — position and weather

sailwx.info

Track history (hours):
 
Tides and Currents Weather Stations Pressure Air Temp Water Temp Dewpoint Dewpoint Depression Visibility Wind Speed Wind Dir Waves Ship Positions

MSC Flavia

Last reported at 2014-Sep-19 17:13 UTC. Time now 2014-Sep-19 23:57 UTC.
Position N 49°00' W 005°30'.

Length 366 m; draft 14.2 m.

Type: Ship (hazmat cat A). MMSI: 373004000.

Date/timePositionNaut miles runAvg speedWind from/ knotsBaromVisibWave heightAir tempDewpointWater temp
2014-Sep-19 17:13N 49°00' W 005°30'3117.9
2014-Sep-19 15:31N 49°15' W 004°49'17917.8
2014-Sep-19 05:28N 50°25' W 000°34'1716.5
2014-Sep-19 04:27N 50°30' W 000°09'1716.9
2014-Sep-19 03:28N 50°35' E 000°16'1617.4
2014-Sep-19 02:33N 50°40' E 000°39'1818.2
2014-Sep-19 01:33N 50°49' E 001°04'1918.4
2014-Sep-19 00:32N 51°02' E 001°27'1717.2
2014-Sep-18 23:33N 51°13' E 001°46'1716.6
2014-Sep-18 22:33N 51°28' E 001°58'1616.5
2014-Sep-18 21:33N 51°40' E 002°16'1716.5
2014-Sep-18 20:33N 51°52' E 002°35'1716.6
2014-Sep-18 19:33N 52°02' E 002°56'1717.4
2014-Sep-18 18:34N 52°04' E 003°24'1717.3
2014-Sep-18 17:34N 52°02' E 003°52'9 8.8
2014-Sep-18 16:33N 51°58' E 004°05'1 0.7
2014-Sep-18 15:30N 51°58' E 004°04'0 0.0
2014-Sep-18 14:33N 51°58' E 004°04'0 0.0
2014-Sep-18 13:24N 51°58' E 004°04'0 0.0
2014-Sep-18 12:33N 51°58' E 004°04'0 0.0
2014-Sep-18 11:33N 51°58' E 004°04'0 0.0
2014-Sep-18 10:33N 51°58' E 004°04'0 0.0
2014-Sep-18 09:33N 51°58' E 004°04'0 0.0
2014-Sep-18 08:33N 51°58' E 004°04'0 0.0
2014-Sep-18 07:33N 51°58' E 004°04'0 0.0
2014-Sep-18 06:33N 51°58' E 004°04'0 0.0
2014-Sep-18 05:30N 51°58' E 004°04'0 0.0
2014-Sep-18 04:33N 51°58' E 004°04'0 0.0
2014-Sep-18 03:33N 51°58' E 004°04'0 0.0
2014-Sep-18 02:33N 51°58' E 004°04'0 0.0
2014-Sep-18 01:30N 51°58' E 004°04'0 0.0
2014-Sep-18 00:33N 51°58' E 004°04'0 0.0
2014-Sep-17 23:30N 51°58' E 004°04'0 0.0
2014-Sep-17 22:33N 51°58' E 004°04'0 0.0
2014-Sep-17 21:33N 51°58' E 004°04'0 0.0
2014-Sep-17 20:33N 51°58' E 004°04'0 0.0
2014-Sep-17 19:33N 51°58' E 004°04'0 0.0
2014-Sep-17 18:33N 51°58' E 004°04'0 0.0
2014-Sep-17 17:33N 51°58' E 004°04'0 0.0
2014-Sep-17 16:33N 51°58' E 004°04'1 0.8
2014-Sep-17 15:33N 51°58' E 004°05'1010.0
2014-Sep-17 14:33N 51°59' E 003°49'1010.1
2014-Sep-17 13:33N 51°57' E 003°33'1514.8
2014-Sep-17 12:33N 51°47' E 003°15'1414.3
2014-Sep-17 11:33N 51°33' E 003°09'9 9.2
2014-Sep-17 10:33N 51°24' E 003°09'1817.5
2014-Sep-17 09:34N 51°26' E 003°37'1211.7
2014-Sep-17 08:33N 51°22' E 003°54'7 7.4
2014-Sep-17 07:34N 51°22' E 004°06'7 7.1
2014-Sep-17 06:34N 51°21' E 004°17'0 0.1
2014-Sep-17 05:34N 51°21' E 004°17'2 1.6
2014-Sep-17 04:33N 51°19' E 004°19'0 0.3
2014-Sep-17 03:23N 51°19' E 004°19'0 0.0
2014-Sep-17 02:32N 51°19' E 004°19'0 0.0
2014-Sep-17 01:32N 51°19' E 004°19'0 0.0
2014-Sep-17 00:32N 51°19' E 004°19'0 0.0
2014-Sep-16 23:32N 51°19' E 004°19'0 0.0
2014-Sep-16 22:32N 51°19' E 004°19'0 0.0
2014-Sep-16 21:32N 51°19' E 004°19'0 0.0
2014-Sep-16 20:32N 51°19' E 004°19'0 0.0
2014-Sep-16 19:32N 51°19' E 004°19'0 0.0
2014-Sep-16 18:23N 51°19' E 004°19'0 0.0
2014-Sep-16 17:32N 51°19' E 004°19'0 0.0
2014-Sep-16 16:29N 51°19' E 004°19'0 0.0
2014-Sep-16 15:32N 51°19' E 004°19'0 0.0
2014-Sep-16 14:26N 51°19' E 004°19'0 0.0
2014-Sep-16 13:29N 51°19' E 004°19'0 0.0
2014-Sep-16 12:23N 51°19' E 004°19'0 0.0
2014-Sep-16 11:32N 51°19' E 004°19'0 0.0
2014-Sep-16 10:32N 51°19' E 004°19'0 0.0
2014-Sep-16 09:29N 51°19' E 004°19'0 0.0
2014-Sep-16 08:26N 51°19' E 004°19'0 0.0
2014-Sep-16 07:17N 51°19' E 004°19'0 0.0
2014-Sep-16 06:29N 51°19' E 004°19'0 0.0
2014-Sep-16 05:32N 51°19' E 004°19'0 0.0
2014-Sep-16 04:32N 51°19' E 004°19'0 0.0
2014-Sep-16 03:32N 51°19' E 004°19'0 0.0
2014-Sep-16 02:26N 51°19' E 004°19'0 0.0
2014-Sep-16 01:20N 51°19' E 004°19'0 0.0
2014-Sep-16 00:32N 51°19' E 004°19'0 0.0
2014-Sep-15 23:32N 51°19' E 004°19'0 0.0
2014-Sep-15 22:29N 51°19' E 004°19'0 0.0
2014-Sep-15 21:29N 51°19' E 004°19'0 0.0
2014-Sep-15 20:29N 51°19' E 004°19'0 0.0
2014-Sep-15 19:23N 51°19' E 004°19'0 0.0
2014-Sep-15 18:29N 51°19' E 004°19'0 0.0
2014-Sep-15 17:29N 51°19' E 004°19'0 0.0
2014-Sep-15 16:32N 51°19' E 004°19'0 0.0
2014-Sep-15 15:29N 51°19' E 004°19'0 0.0
2014-Sep-15 14:29N 51°19' E 004°19'0 0.0
2014-Sep-15 13:32N 51°19' E 004°19'0 0.0
2014-Sep-15 12:32N 51°19' E 004°19'0 0.0
2014-Sep-15 11:32N 51°19' E 004°19'0 0.0
2014-Sep-15 10:29N 51°19' E 004°19'0 0.0
2014-Sep-15 09:32N 51°19' E 004°19'0 0.0
2014-Sep-15 08:29N 51°19' E 004°19'0 0.0
2014-Sep-15 07:32N 51°19' E 004°19'1 0.8
2014-Sep-15 06:33N 51°20' E 004°18'1 1.1
2014-Sep-15 05:34N 51°21' E 004°17'0 0.2
2014-Sep-15 04:34N 51°21' E 004°17'5 4.7
2014-Sep-15 03:33N 51°24' E 004°11'9 8.7
2014-Sep-15 02:33N 51°24' E 003°57'9 9.3
2014-Sep-15 01:33N 51°25' E 003°42'9 8.8
2014-Sep-15 00:33N 51°25' E 003°28'1212.0
2014-Sep-14 23:33N 51°24' E 003°09'11 9.0
2014-Sep-14 22:23N 51°25' E 002°52'4 4.9
2014-Sep-14 21:33N 51°25' E 002°59'9 9.4
2014-Sep-14 20:33N 51°21' E 003°12'1 0.3
2014-Sep-14 18:05N 51°20' E 003°12'0 0.0
2014-Sep-14 17:17N 51°20' E 003°12'0 0.0
2014-Sep-14 15:20N 51°20' E 003°12'0 0.0
2014-Sep-14 14:32N 51°20' E 003°12'0 0.0
2014-Sep-14 13:32N 51°20' E 003°12'0 0.0
2014-Sep-14 12:26N 51°20' E 003°12'0 0.0
2014-Sep-14 11:26N 51°20' E 003°12'0 0.0
2014-Sep-14 10:29N 51°20' E 003°12'0 0.0
2014-Sep-14 09:26N 51°20' E 003°12'0 0.0
2014-Sep-14 08:26N 51°20' E 003°12'0 0.0
2014-Sep-14 07:26N 51°20' E 003°12'0 0.0
2014-Sep-14 05:32N 51°20' E 003°12'0 0.0
2014-Sep-14 04:32N 51°20' E 003°12'0 0.0
2014-Sep-14 03:32N 51°20' E 003°12'0 0.0
2014-Sep-14 02:32N 51°20' E 003°12'0 0.0
2014-Sep-14 01:32N 51°20' E 003°12'0 0.0
2014-Sep-13 21:32N 51°20' E 003°12'0 0.0
2014-Sep-13 20:32N 51°20' E 003°12'0 0.0
2014-Sep-13 19:29N 51°20' E 003°12'0 0.0
2014-Sep-13 18:11N 51°20' E 003°12'1 1.2
2014-Sep-13 17:33N 51°21' E 003°12'1311.5
2014-Sep-13 16:25N 51°25' E 002°53'1211.4
2014-Sep-13 15:24N 51°22' E 002°35'1011.4
2014-Sep-13 14:32N 51°20' E 002°19'1313.0
2014-Sep-13 13:32N 51°23' E 001°60'1717.5
2014-Sep-13 12:33N 51°38' E 001°46'1515.0
2014-Sep-13 11:34N 51°52' E 001°35'1010.3
2014-Sep-13 10:34N 51°55' E 001°19'1 1.3
2014-Sep-13 09:32N 51°57' E 001°19'0 0.0
2014-Sep-13 08:32N 51°57' E 001°19'0 0.0
2014-Sep-13 07:32N 51°57' E 001°19'0 0.0
2014-Sep-13 06:32N 51°57' E 001°19'0 0.0
2014-Sep-13 05:32N 51°57' E 001°19'0 0.0
2014-Sep-13 04:32N 51°57' E 001°19'0 0.0
2014-Sep-13 03:32N 51°57' E 001°19'0 0.0
2014-Sep-13 02:32N 51°57' E 001°19'0 0.0
2014-Sep-13 01:32N 51°57' E 001°19'0 0.0
2014-Sep-13 00:29N 51°57' E 001°19'0 0.0
2014-Sep-12 23:32N 51°57' E 001°19'0 0.0
2014-Sep-12 22:32N 51°57' E 001°19'0 0.0
2014-Sep-12 21:32N 51°57' E 001°19'0 0.0
2014-Sep-12 20:32N 51°57' E 001°19'0 0.0
2014-Sep-12 19:32N 51°57' E 001°19'0 0.0
2014-Sep-12 18:32N 51°57' E 001°19'0 0.0
2014-Sep-12 17:32N 51°57' E 001°19'0 0.0
2014-Sep-12 16:32N 51°57' E 001°19'0 0.0
2014-Sep-12 15:32N 51°57' E 001°19'0 0.0
2014-Sep-12 14:32N 51°57' E 001°19'0 0.0
2014-Sep-12 13:32N 51°57' E 001°19'0 0.0
2014-Sep-12 12:32N 51°57' E 001°19'0 0.0
2014-Sep-12 11:32N 51°57' E 001°19'0 0.0
2014-Sep-12 10:32N 51°57' E 001°19'0 0.0
2014-Sep-12 09:32N 51°57' E 001°19'0 0.0
2014-Sep-12 08:32N 51°57' E 001°19'0 0.0
2014-Sep-12 07:32N 51°57' E 001°19'0 0.0
2014-Sep-12 06:32N 51°57' E 001°19'0 0.0
2014-Sep-12 05:32N 51°57' E 001°19'0 0.0
2014-Sep-12 04:32N 51°57' E 001°19'0 0.0
2014-Sep-12 03:32N 51°57' E 001°19'0 0.0
2014-Sep-12 02:32N 51°57' E 001°19'0 0.0
2014-Sep-12 01:33N 51°57' E 001°19'3 3.4
2014-Sep-12 00:34N 51°56' E 001°24'1111.1
2014-Sep-11 23:33N 51°51' E 001°41'4 3.8
2014-Sep-11 22:33N 51°55' E 001°42'0 0.1
2014-Sep-11 21:32N 51°55' E 001°42'0 0.0
2014-Sep-11 20:32N 51°55' E 001°42'0 0.0
2014-Sep-11 19:32N 51°55' E 001°42'0 0.3
2014-Sep-11 18:32N 51°55' E 001°42'4 4.3
2014-Sep-11 17:33N 51°52' E 001°46'1010.3
2014-Sep-11 16:33N 51°42' E 001°49'1313.0
2014-Sep-11 15:33N 51°30' E 001°57'1313.1
2014-Sep-11 14:34N 51°17' E 001°54'2020.3
2014-Sep-11 13:33N 51°01' E 001°34'4018.7
2014-Sep-11 11:26N 50°30' E 000°54'1719.6
2014-Sep-11 10:34N 50°24' E 000°30'  
Track history (hours):
 
Tides and Currents Weather Stations Pressure Air Temp Water Temp Dewpoint Dewpoint Depression Visibility Wind Speed Wind Dir Waves Ship Positions

MSC Flavia

Last reported at 2014-Sep-19 17:13 UTC. Time now 2014-Sep-19 23:57 UTC.
Position N 49°00' W 005°30'.

Length 366 m; draft 14.2 m.

Type: Ship (hazmat cat A). MMSI: 373004000.

Date/timePositionNaut miles runAvg speedWind from/ knotsBaromVisibWave heightAir tempDewpointWater temp
2014-Sep-19 17:13N 49°00' W 005°30'3117.9
2014-Sep-19 15:31N 49°15' W 004°49'17917.8
2014-Sep-19 05:28N 50°25' W 000°34'1716.5
2014-Sep-19 04:27N 50°30' W 000°09'1716.9
2014-Sep-19 03:28N 50°35' E 000°16'1617.4
2014-Sep-19 02:33N 50°40' E 000°39'1818.2
2014-Sep-19 01:33N 50°49' E 001°04'1918.4
2014-Sep-19 00:32N 51°02' E 001°27'1717.2
2014-Sep-18 23:33N 51°13' E 001°46'1716.6
2014-Sep-18 22:33N 51°28' E 001°58'1616.5
2014-Sep-18 21:33N 51°40' E 002°16'1716.5
2014-Sep-18 20:33N 51°52' E 002°35'1716.6
2014-Sep-18 19:33N 52°02' E 002°56'1717.4
2014-Sep-18 18:34N 52°04' E 003°24'1717.3
2014-Sep-18 17:34N 52°02' E 003°52'9 8.8
2014-Sep-18 16:33N 51°58' E 004°05'1 0.7
2014-Sep-18 15:30N 51°58' E 004°04'0 0.0
2014-Sep-18 14:33N 51°58' E 004°04'0 0.0
2014-Sep-18 13:24N 51°58' E 004°04'0 0.0
2014-Sep-18 12:33N 51°58' E 004°04'0 0.0
2014-Sep-18 11:33N 51°58' E 004°04'0 0.0
2014-Sep-18 10:33N 51°58' E 004°04'0 0.0
2014-Sep-18 09:33N 51°58' E 004°04'0 0.0
2014-Sep-18 08:33N 51°58' E 004°04'0 0.0
2014-Sep-18 07:33N 51°58' E 004°04'0 0.0
2014-Sep-18 06:33N 51°58' E 004°04'0 0.0
2014-Sep-18 05:30N 51°58' E 004°04'0 0.0
2014-Sep-18 04:33N 51°58' E 004°04'0 0.0
2014-Sep-18 03:33N 51°58' E 004°04'0 0.0
2014-Sep-18 02:33N 51°58' E 004°04'0 0.0
2014-Sep-18 01:30N 51°58' E 004°04'0 0.0
2014-Sep-18 00:33N 51°58' E 004°04'0 0.0
2014-Sep-17 23:30N 51°58' E 004°04'0 0.0
2014-Sep-17 22:33N 51°58' E 004°04'0 0.0
2014-Sep-17 21:33N 51°58' E 004°04'0 0.0
2014-Sep-17 20:33N 51°58' E 004°04'0 0.0
2014-Sep-17 19:33N 51°58' E 004°04'0 0.0
2014-Sep-17 18:33N 51°58' E 004°04'0 0.0
2014-Sep-17 17:33N 51°58' E 004°04'0 0.0
2014-Sep-17 16:33N 51°58' E 004°04'1 0.8
2014-Sep-17 15:33N 51°58' E 004°05'1010.0
2014-Sep-17 14:33N 51°59' E 003°49'1010.1
2014-Sep-17 13:33N 51°57' E 003°33'1514.8
2014-Sep-17 12:33N 51°47' E 003°15'1414.3
2014-Sep-17 11:33N 51°33' E 003°09'9 9.2
2014-Sep-17 10:33N 51°24' E 003°09'1817.5
2014-Sep-17 09:34N 51°26' E 003°37'1211.7
2014-Sep-17 08:33N 51°22' E 003°54'7 7.4
2014-Sep-17 07:34N 51°22' E 004°06'7 7.1
2014-Sep-17 06:34N 51°21' E 004°17'0 0.1
2014-Sep-17 05:34N 51°21' E 004°17'2 1.6
2014-Sep-17 04:33N 51°19' E 004°19'0 0.3
2014-Sep-17 03:23N 51°19' E 004°19'0 0.0
2014-Sep-17 02:32N 51°19' E 004°19'0 0.0
2014-Sep-17 01:32N 51°19' E 004°19'0 0.0
2014-Sep-17 00:32N 51°19' E 004°19'0 0.0
2014-Sep-16 23:32N 51°19' E 004°19'0 0.0
2014-Sep-16 22:32N 51°19' E 004°19'0 0.0
2014-Sep-16 21:32N 51°19' E 004°19'0 0.0
2014-Sep-16 20:32N 51°19' E 004°19'0 0.0
2014-Sep-16 19:32N 51°19' E 004°19'0 0.0
2014-Sep-16 18:23N 51°19' E 004°19'0 0.0
2014-Sep-16 17:32N 51°19' E 004°19'0 0.0
2014-Sep-16 16:29N 51°19' E 004°19'0 0.0
2014-Sep-16 15:32N 51°19' E 004°19'0 0.0
2014-Sep-16 14:26N 51°19' E 004°19'0 0.0
2014-Sep-16 13:29N 51°19' E 004°19'0 0.0
2014-Sep-16 12:23N 51°19' E 004°19'0 0.0
2014-Sep-16 11:32N 51°19' E 004°19'0 0.0
2014-Sep-16 10:32N 51°19' E 004°19'0 0.0
2014-Sep-16 09:29N 51°19' E 004°19'0 0.0
2014-Sep-16 08:26N 51°19' E 004°19'0 0.0
2014-Sep-16 07:17N 51°19' E 004°19'0 0.0
2014-Sep-16 06:29N 51°19' E 004°19'0 0.0
2014-Sep-16 05:32N 51°19' E 004°19'0 0.0
2014-Sep-16 04:32N 51°19' E 004°19'0 0.0
2014-Sep-16 03:32N 51°19' E 004°19'0 0.0
2014-Sep-16 02:26N 51°19' E 004°19'0 0.0
2014-Sep-16 01:20N 51°19' E 004°19'0 0.0
2014-Sep-16 00:32N 51°19' E 004°19'0 0.0
2014-Sep-15 23:32N 51°19' E 004°19'0 0.0
2014-Sep-15 22:29N 51°19' E 004°19'0 0.0
2014-Sep-15 21:29N 51°19' E 004°19'0 0.0
2014-Sep-15 20:29N 51°19' E 004°19'0 0.0
2014-Sep-15 19:23N 51°19' E 004°19'0 0.0
2014-Sep-15 18:29N 51°19' E 004°19'0 0.0
2014-Sep-15 17:29N 51°19' E 004°19'0 0.0
2014-Sep-15 16:32N 51°19' E 004°19'0 0.0
2014-Sep-15 15:29N 51°19' E 004°19'0 0.0
2014-Sep-15 14:29N 51°19' E 004°19'0 0.0
2014-Sep-15 13:32N 51°19' E 004°19'0 0.0
2014-Sep-15 12:32N 51°19' E 004°19'0 0.0
2014-Sep-15 11:32N 51°19' E 004°19'0 0.0
2014-Sep-15 10:29N 51°19' E 004°19'0 0.0
2014-Sep-15 09:32N 51°19' E 004°19'0 0.0
2014-Sep-15 08:29N 51°19' E 004°19'0 0.0
2014-Sep-15 07:32N 51°19' E 004°19'1 0.8
2014-Sep-15 06:33N 51°20' E 004°18'1 1.1
2014-Sep-15 05:34N 51°21' E 004°17'0 0.2
2014-Sep-15 04:34N 51°21' E 004°17'5 4.7
2014-Sep-15 03:33N 51°24' E 004°11'9 8.7
2014-Sep-15 02:33N 51°24' E 003°57'9 9.3
2014-Sep-15 01:33N 51°25' E 003°42'9 8.8
2014-Sep-15 00:33N 51°25' E 003°28'1212.0
2014-Sep-14 23:33N 51°24' E 003°09'11 9.0
2014-Sep-14 22:23N 51°25' E 002°52'4 4.9
2014-Sep-14 21:33N 51°25' E 002°59'9 9.4
2014-Sep-14 20:33N 51°21' E 003°12'1 0.3
2014-Sep-14 18:05N 51°20' E 003°12'0 0.0
2014-Sep-14 17:17N 51°20' E 003°12'0 0.0
2014-Sep-14 15:20N 51°20' E 003°12'0 0.0
2014-Sep-14 14:32N 51°20' E 003°12'0 0.0
2014-Sep-14 13:32N 51°20' E 003°12'0 0.0
2014-Sep-14 12:26N 51°20' E 003°12'0 0.0
2014-Sep-14 11:26N 51°20' E 003°12'0 0.0
2014-Sep-14 10:29N 51°20' E 003°12'0 0.0
2014-Sep-14 09:26N 51°20' E 003°12'0 0.0
2014-Sep-14 08:26N 51°20' E 003°12'0 0.0
2014-Sep-14 07:26N 51°20' E 003°12'0 0.0
2014-Sep-14 05:32N 51°20' E 003°12'0 0.0
2014-Sep-14 04:32N 51°20' E 003°12'0 0.0
2014-Sep-14 03:32N 51°20' E 003°12'0 0.0
2014-Sep-14 02:32N 51°20' E 003°12'0 0.0
2014-Sep-14 01:32N 51°20' E 003°12'0 0.0
2014-Sep-13 21:32N 51°20' E 003°12'0 0.0
2014-Sep-13 20:32N 51°20' E 003°12'0 0.0
2014-Sep-13 19:29N 51°20' E 003°12'0 0.0
2014-Sep-13 18:11N 51°20' E 003°12'1 1.2
2014-Sep-13 17:33N 51°21' E 003°12'1311.5
2014-Sep-13 16:25N 51°25' E 002°53'1211.4
2014-Sep-13 15:24N 51°22' E 002°35'1011.4
2014-Sep-13 14:32N 51°20' E 002°19'1313.0
2014-Sep-13 13:32N 51°23' E 001°60'1717.5
2014-Sep-13 12:33N 51°38' E 001°46'1515.0
2014-Sep-13 11:34N 51°52' E 001°35'1010.3
2014-Sep-13 10:34N 51°55' E 001°19'1 1.3
2014-Sep-13 09:32N 51°57' E 001°19'0 0.0
2014-Sep-13 08:32N 51°57' E 001°19'0 0.0
2014-Sep-13 07:32N 51°57' E 001°19'0 0.0
2014-Sep-13 06:32N 51°57' E 001°19'0 0.0
2014-Sep-13 05:32N 51°57' E 001°19'0 0.0
2014-Sep-13 04:32N 51°57' E 001°19'0 0.0
2014-Sep-13 03:32N 51°57' E 001°19'0 0.0
2014-Sep-13 02:32N 51°57' E 001°19'0 0.0
2014-Sep-13 01:32N 51°57' E 001°19'0 0.0
2014-Sep-13 00:29N 51°57' E 001°19'0 0.0
2014-Sep-12 23:32N 51°57' E 001°19'0 0.0
2014-Sep-12 22:32N 51°57' E 001°19'0 0.0
2014-Sep-12 21:32N 51°57' E 001°19'0 0.0
2014-Sep-12 20:32N 51°57' E 001°19'0 0.0
2014-Sep-12 19:32N 51°57' E 001°19'0 0.0
2014-Sep-12 18:32N 51°57' E 001°19'0 0.0
2014-Sep-12 17:32N 51°57' E 001°19'0 0.0
2014-Sep-12 16:32N 51°57' E 001°19'0 0.0
2014-Sep-12 15:32N 51°57' E 001°19'0 0.0
2014-Sep-12 14:32N 51°57' E 001°19'0 0.0
2014-Sep-12 13:32N 51°57' E 001°19'0 0.0
2014-Sep-12 12:32N 51°57' E 001°19'0 0.0
2014-Sep-12 11:32N 51°57' E 001°19'0 0.0
2014-Sep-12 10:32N 51°57' E 001°19'0 0.0
2014-Sep-12 09:32N 51°57' E 001°19'0 0.0
2014-Sep-12 08:32N 51°57' E 001°19'0 0.0
2014-Sep-12 07:32N 51°57' E 001°19'0 0.0
2014-Sep-12 06:32N 51°57' E 001°19'0 0.0
2014-Sep-12 05:32N 51°57' E 001°19'0 0.0
2014-Sep-12 04:32N 51°57' E 001°19'0 0.0
2014-Sep-12 03:32N 51°57' E 001°19'0 0.0
2014-Sep-12 02:32N 51°57' E 001°19'0 0.0
2014-Sep-12 01:33N 51°57' E 001°19'3 3.4
2014-Sep-12 00:34N 51°56' E 001°24'1111.1
2014-Sep-11 23:33N 51°51' E 001°41'4 3.8
2014-Sep-11 22:33N 51°55' E 001°42'0 0.1
2014-Sep-11 21:32N 51°55' E 001°42'0 0.0
2014-Sep-11 20:32N 51°55' E 001°42'0 0.0
2014-Sep-11 19:32N 51°55' E 001°42'0 0.3
2014-Sep-11 18:32N 51°55' E 001°42'4 4.3
2014-Sep-11 17:33N 51°52' E 001°46'1010.3
2014-Sep-11 16:33N 51°42' E 001°49'1313.0
2014-Sep-11 15:33N 51°30' E 001°57'1313.1
2014-Sep-11 14:34N 51°17' E 001°54'2020.3
2014-Sep-11 13:33N 51°01' E 001°34'4018.7
2014-Sep-11 11:26N 50°30' E 000°54'1719.6
2014-Sep-11 10:34N 50°24' E 000°30'  

Dump ship's entire track history